Aérodrome :
LOGIN :

S'inscrire | Disclaimer

   EN    FR    IT 

 










Légende :    VFR   VFR Marginal   IFR   IFR Intensif   IFR Très Intensif
Visi : 
Plafond : 
>= 8 km
>= 3000ft
5 à 8 km
1000 à 3000 ft
1500m à 5 km
500 à 1000 ft
800 à 1500m
200 à 500 ft
< 800m
< 200 ft
Symboles :   Orages  Brouillard  Fortes neiges  Fortes précipitations  Vent > 20 kt
SIGMETs :   Divers  Orages  Givrage  Turbulence  Onde Orograph.  Cendres Volcan.






- Altitude de l'aérodrome : 2096 ft
- Code IATA : AUR


LFLW - Aurillac

DERNIER METAR :
  • 272130Z AUTO 32006KT 280V350 9999 ////// 06/04 Q1018

METARs EXPIRÉS :
  • 272100Z AUTO 31004KT 280V340 9999 ////// 06/05 Q1017
  • 272030Z AUTO 30007KT 280V350 9999 ////// 06/05 Q1016
  • 272000Z AUTO 29008KT 250V320 9999 ////// 06/05 Q1015
  • 271930Z AUTO 30010KT 260V320 9999 -RA ////// 06/05 Q1015
  • 271900Z AUTO 29012KT 260V320 9000 -RA ////// 07/06 Q1014

TAF TAF LFLW
Valide du 27 à 15h jusqu'au 28 à 00h UTC


271400Z 2715/2724 27014KT 9999 BKN009
TEMPO 2715/2716 2000 RA OVC003
BECMG 2716/2718 BKN020
TEMPO 2715/2718 27017G30KT
PROB40
TEMPO 2716/2720 4000 -SHRA BKN009TCU
TEMPO 2720/2724 BKN011



MET'MAP, la Météo Aéronautique d'un coup d'oeil ! - Copyright ORBIFLY Décembre 2007 - Disclaimer

ORBIFLY MET'MAP TEAM :

Programmation & Développement : Alexandra Zaïnal
Sur une idée originale de : Baudouin d'Aumeries
Assistance à la programmation : Marc-Olivier Méhu
Soutien technique & logistique : Manuel Goepfert

Contact : metmap@orbifly.com




SOURCES & CREDITS :

   NOAA